Etusivu
METAR-TAF:

METAR-TAF

Lentoasemat :

Foz do Iguaçu, Paraná, Brasilia

Leveyspiiri: 25-31S, Pituuspiiri: 054-35W, korkeus merenpinnasta: 180 m

Tämänhetkinen sää

Tämä raportti tehtiin 33 minuuttia sitten, kello 23.00 UTC
Tuuli 4 kn etelästä/kaakosta
Lämpötila 30°C
Kosteus 62%
Ilmanpaine 1012 hPa
Näkyvyys 10 km tai enemmän
Muutamia pilviä 4000 ft:n korkeudessa

METAR: SBFI 142300Z 16004KT 9999 FEW040 30/22 Q1012

Aika: 21:33 (23:33 UTC)

Sääennuste

Tämä raportti tehtiin 1 tunti ja 33 minuuttia sitten, kello 22.00 UTC
Ennuste voimassa 15. päivästä klo 00 UTC - 15. päivään klo 24 UTC
Tuuli 9 kn pohjoisesta/koillisesta
Näkyvyys 10 km tai enemmän
Muutamia pilviä 3000 ft:n korkeudessa

TAF: SBFI 142200Z 1500/1524 02009KT 9999 FEW030 TN24/1508Z TX34/1518Z RMK PEB

Säähavainnot ja -ennusteet yli 4000 lentoasemalta (METAR- ja TAF-raportit).

Käytössä olevat sääasemat on merkitty karttaan keltaisilla ja punaisilla pisteillä.

Aseta hiiri pisteen päälle nähdäksesi sääaseman nimen.

Klikkaa sitten nähdäksesi säähavainnot ja -ennusteet.

Kartan vaihtaminen: klikkaa mustalla rastilla varustettuja vihreitä pisteitä, niin voit zoomata sisään; viivalla varustettua vihreää pistettä, niin voit zoomata ulos tai vihreitä nuolia, niin pääset viereisille kartoille.


METAR-TAF: